Time;durP1;ratioP1;P1;durP2;ratioP2;P2;SDS_P1;SDS_P2;PMS_P1;PMS_P2;Temp;Humidity;BMP_temperature;BMP_pressure;BME280_temperature;BME280_humidity;BME280_pressure;Samples;Min_cycle;Max_cycle;Signal;HPM_P1;HPM_P2
2022/11/18 00:01:11;;;;;;;58.50;25.30;;;8.40;99.90;;;;;;4779438;29;21635;-77
2022/11/18 00:03:39;;;;;;;58.15;25.33;;;8.40;99.90;;;;;;4778529;29;20055;-77
2022/11/18 00:06:09;;;;;;;54.13;24.23;;;8.40;99.90;;;;;;4777871;29;20059;-77
2022/11/18 00:08:36;;;;;;;62.92;25.00;;;8.40;99.90;;;;;;4775273;29;20520;-76
2022/11/18 00:14:17;;;;;;;54.92;23.17;;;8.40;99.90;;;;;;4777844;30;20079;-76
2022/11/18 00:14:18;;;;;;;55.25;22.52;;;8.30;99.90;;;;;;4780987;29;20051;-76
2022/11/18 00:16:46;;;;;;;56.63;22.83;;;8.30;99.90;;;;;;4776009;29;20132;-76
2022/11/18 00:19:13;;;;;;;56.47;22.27;;;8.30;99.90;;;;;;4777150;29;20124;-76
2022/11/18 00:21:41;;;;;;;51.72;20.88;;;8.20;99.90;;;;;;4773927;29;20083;-76
2022/11/18 00:24:08;;;;;;;51.03;22.00;;;8.20;99.90;;;;;;4779168;29;20051;-76
2022/11/18 00:26:35;;;;;;;60.25;23.77;;;8.20;99.90;;;;;;4776380;29;20067;-76
2022/11/18 00:29:02;;;;;;;51.67;21.50;;;8.20;99.90;;;;;;4775031;29;20138;-76
2022/11/18 00:31:30;;;;;;;58.80;23.38;;;8.10;99.90;;;;;;4775556;29;20052;-76
2022/11/18 00:33:57;;;;;;;60.53;23.95;;;8.10;99.90;;;;;;4773291;29;20455;-76
2022/11/18 00:36:24;;;;;;;53.70;21.60;;;8.10;99.90;;;;;;4775516;29;20055;-76
2022/11/18 00:38:51;;;;;;;60.53;23.33;;;8.00;99.90;;;;;;4776852;29;20094;-76
2022/11/18 00:41:18;;;;;;;67.05;23.55;;;8.00;99.90;;;;;;4776244;29;20148;-76
2022/11/18 00:43:45;;;;;;;61.95;24.80;;;8.00;99.90;;;;;;4766339;30;20116;-76
2022/11/18 00:46:12;;;;;;;56.38;21.95;;;7.90;99.90;;;;;;4759582;29;20079;-76
2022/11/18 00:48:40;;;;;;;58.75;21.77;;;7.90;99.90;;;;;;4779289;29;20047;-76
2022/11/18 00:51:13;;;;;;;57.33;22.75;;;7.80;99.90;;;;;;4766755;30;20058;-76
2022/11/18 00:53:41;;;;;;;60.00;22.27;;;7.80;99.90;;;;;;4772977;29;20043;-76
2022/11/18 00:56:08;;;;;;;57.38;21.70;;;7.80;99.90;;;;;;4776316;29;20163;-76
2022/11/18 00:58:35;;;;;;;57.90;22.45;;;7.80;99.90;;;;;;4775778;29;20058;-76
2022/11/18 01:01:03;;;;;;;57.00;22.30;;;7.80;99.90;;;;;;4775002;29;20408;-76
2022/11/18 01:03:31;;;;;;;60.78;22.95;;;7.80;99.90;;;;;;4773684;29;20438;-76
2022/11/18 01:05:58;;;;;;;55.75;21.65;;;7.80;99.90;;;;;;4766908;29;20063;-76
2022/11/18 01:08:25;;;;;;;59.53;22.92;;;7.70;99.90;;;;;;4774809;30;20118;-76
2022/11/18 01:10:52;;;;;;;61.72;21.48;;;7.80;99.90;;;;;;4764898;30;20097;-76
2022/11/18 01:13:22;;;;;;;52.63;19.05;;;7.80;99.90;;;;;;4766279;30;20054;-76
2022/11/18 01:15:50;;;;;;;64.30;21.95;;;7.80;99.90;;;;;;4775561;29;20055;-76
2022/11/18 01:18:20;;;;;;;55.85;19.85;;;7.80;99.90;;;;;;4778970;29;20047;-76
2022/11/18 01:20:47;;;;;;;53.58;20.10;;;7.80;99.90;;;;;;4775780;29;20059;-76
2022/11/18 01:23:15;;;;;;;56.78;21.38;;;7.80;99.90;;;;;;4777054;29;20568;-76
2022/11/18 01:25:44;;;;;;;55.40;21.27;;;7.80;99.90;;;;;;4768217;29;20082;-76
2022/11/18 01:28:11;;;;;;;61.17;21.90;;;7.90;99.90;;;;;;4777712;29;20055;-76
2022/11/18 01:30:40;;;;;;;58.58;20.17;;;7.90;99.90;;;;;;4767809;30;20487;-76
2022/11/18 01:33:08;;;;;;;58.90;21.95;;;7.90;99.90;;;;;;4779255;29;20126;-76
2022/11/18 01:35:37;;;;;;;62.55;22.10;;;7.80;99.90;;;;;;4778320;29;20051;-76
2022/11/18 01:38:05;;;;;;;62.75;21.77;;;7.80;99.90;;;;;;4766002;29;20082;-76
2022/11/18 01:40:35;;;;;;;58.63;20.95;;;7.80;99.90;;;;;;4763175;30;20061;-76
2022/11/18 01:43:04;;;;;;;54.25;20.25;;;7.80;99.90;;;;;;4750040;30;20047;-76
2022/11/18 01:45:39;;;;;;;51.63;18.80;;;7.90;99.90;;;;;;4758521;30;20052;-76
2022/11/18 01:48:12;;;;;;;49.72;21.00;;;7.80;99.90;;;;;;4753736;30;20044;-76
2022/11/18 01:50:42;;;;;;;;;;;7.90;99.90;;;;;;4756731;30;20066;-76
2022/11/18 01:53:16;;;;;;;47.20;18.23;;;7.80;99.90;;;;;;4758796;30;19940;-76
2022/11/18 01:55:47;;;;;;;50.67;19.45;;;7.80;99.90;;;;;;4757604;30;20062;-76
2022/11/18 01:58:25;;;;;;;46.53;18.85;;;7.80;99.90;;;;;;4742828;30;20048;-76
2022/11/18 02:00:52;;;;;;;67.47;20.70;;;7.80;99.90;;;;;;4760223;30;20441;-76
2022/11/18 02:03:20;;;;;;;48.03;19.52;;;7.80;99.90;;;;;;4755495;30;20385;-76
2022/11/18 02:05:49;;;;;;;49.22;20.15;;;7.80;99.90;;;;;;4756302;30;20105;-76
2022/11/18 02:08:18;;;;;;;42.83;17.95;;;7.70;99.90;;;;;;4734953;30;21231;-76
2022/11/18 02:10:45;;;;;;;42.63;18.60;;;7.80;99.90;;;;;;4759484;30;20056;-76
2022/11/18 02:13:12;;;;;;;47.33;18.10;;;7.70;99.90;;;;;;4747050;30;20040;-76
2022/11/18 02:15:57;;;;;;;40.45;17.38;;;7.70;99.90;;;;;;4761833;30;20047;-76
2022/11/18 02:18:34;;;;;;;40.50;17.52;;;7.80;99.90;;;;;;4747640;30;20048;-76
2022/11/18 02:21:31;;;;;;;40.15;17.08;;;7.80;99.90;;;;;;4755041;30;20056;-76
2022/11/18 02:24:13;;;;;;;40.60;17.17;;;7.80;99.90;;;;;;4758677;30;20049;-76
2022/11/18 02:27:08;;;;;;;34.88;16.60;;;7.80;99.90;;;;;;4763615;30;20493;-76
2022/11/18 02:29:48;;;;;;;38.53;17.52;;;7.80;99.90;;;;;;4760229;30;20056;-76
2022/11/18 02:32:23;;;;;;;33.50;16.70;;;7.80;99.90;;;;;;4760453;30;20559;-76
2022/11/18 02:34:50;;;;;;;42.97;17.90;;;7.80;99.90;;;;;;4762374;30;20059;-76
2022/11/18 02:37:24;;;;;;;45.05;17.60;;;7.80;99.90;;;;;;4766115;29;20131;-76
2022/11/18 02:40:04;;;;;;;47.88;18.75;;;7.70;99.90;;;;;;4779414;29;20101;-76
2022/11/18 02:42:35;;;;;;;43.90;17.75;;;7.80;99.90;;;;;;4776068;29;20058;-76
2022/11/18 02:45:07;;;;;;;42.35;17.20;;;7.80;99.90;;;;;;4783418;29;20477;-76
2022/11/18 02:47:36;;;;;;;43.95;17.33;;;7.80;99.90;;;;;;4781793;29;20051;-76
2022/11/18 02:50:10;;;;;;;44.60;17.88;;;7.80;99.90;;;;;;4775073;29;20161;-76
2022/11/18 02:52:39;;;;;;;37.78;17.08;;;7.80;99.90;;;;;;4783258;29;20534;-76
2022/11/18 02:55:10;;;;;;;35.38;16.92;;;7.80;99.90;;;;;;4779803;29;24002;-76
2022/11/18 02:57:39;;;;;;;41.10;16.73;;;7.80;99.90;;;;;;4765802;30;20047;-76
2022/11/18 03:00:06;;;;;;;39.88;16.80;;;7.80;99.90;;;;;;4780409;29;20052;-76
2022/11/18 03:02:45;;;;;;;39.42;17.10;;;7.80;99.90;;;;;;4780836;29;20058;-76
2022/11/18 03:05:19;;;;;;;38.38;17.88;;;7.80;99.90;;;;;;4781474;29;20442;-76
2022/11/18 03:07:54;;;;;;;41.55;17.45;;;7.80;99.90;;;;;;4775946;29;20104;-76
2022/11/18 03:10:24;;;;;;;42.92;17.30;;;7.80;99.90;;;;;;4767410;30;20040;-76
2022/11/18 03:13:12;;;;;;;42.17;17.88;;;7.80;99.90;;;;;;4777277;29;20052;-76
2022/11/18 03:15:46;;;;;;;41.45;17.65;;;7.80;99.90;;;;;;4781235;29;20039;-76
2022/11/18 03:18:27;;;;;;;39.90;17.80;;;7.80;99.90;;;;;;4766104;30;20066;-76
2022/11/18 03:21:17;;;;;;;41.35;17.50;;;7.80;99.90;;;;;;4779099;29;21230;-76
2022/11/18 03:24:19;;;;;;;39.85;17.08;;;7.80;99.90;;;;;;4767608;29;20138;-76
2022/11/18 03:26:51;;;;;;;40.10;17.13;;;7.80;99.90;;;;;;4781044;29;20054;-76
2022/11/18 03:29:27;;;;;;;36.97;14.70;;;7.80;99.90;;;;;;4778217;29;22677;-76
2022/11/18 03:32:03;;;;;;;39.30;15.85;;;7.80;99.90;;;;;;4762537;29;20055;-76
2022/11/18 03:34:44;;;;;;;36.13;16.40;;;7.80;99.90;;;;;;4782348;29;20046;-77
2022/11/18 03:37:14;;;;;;;39.15;17.05;;;7.80;99.90;;;;;;4781585;29;20856;-77
2022/11/18 03:39:47;;;;;;;36.15;16.58;;;7.80;99.90;;;;;;4760390;30;20066;-77
2022/11/18 03:42:20;;;;;;;32.45;14.95;;;7.80;99.90;;;;;;4761693;30;20055;-76
2022/11/18 03:44:49;;;;;;;;;;;7.80;99.90;;;;;;4749451;30;20532;-76
2022/11/18 03:47:30;;;;;;;36.80;14.55;;;7.80;99.90;;;;;;4746916;30;19932;-76
2022/11/18 03:50:04;;;;;;;41.17;16.42;;;7.80;99.90;;;;;;4758962;30;20136;-76
2022/11/18 03:52:35;;;;;;;42.72;16.52;;;7.80;99.90;;;;;;4761704;30;20054;-76
2022/11/18 03:55:11;;;;;;;46.88;17.48;;;7.90;99.90;;;;;;4758575;30;20081;-76
2022/11/18 03:57:53;;;;;;;43.95;17.30;;;7.80;99.90;;;;;;4744615;30;20083;-76
2022/11/18 04:00:20;;;;;;;45.10;18.53;;;7.90;99.90;;;;;;4759771;30;20044;-76
2022/11/18 04:02:49;;;;;;;46.70;17.20;;;7.90;99.90;;;;;;4751321;30;20807;-76
2022/11/18 04:05:18;;;;;;;47.85;18.05;;;7.90;99.90;;;;;;4756066;30;20508;-76
2022/11/18 04:08:03;;;;;;;47.67;17.83;;;7.90;99.90;;;;;;4758010;30;20131;-76
2022/11/18 04:10:40;;;;;;;45.08;17.15;;;7.90;99.90;;;;;;4755259;30;20047;-76
2022/11/18 04:13:31;;;;;;;46.03;18.00;;;7.90;99.90;;;;;;4759616;30;20550;-76
2022/11/18 04:15:58;;;;;;;53.50;18.98;;;7.90;99.90;;;;;;4765800;30;20040;-76
2022/11/18 04:18:26;;;;;;;44.38;18.02;;;7.90;99.90;;;;;;4749612;30;20067;-76
2022/11/18 04:20:53;;;;;;;41.35;16.25;;;8.30;99.90;;;;;;4755608;30;20099;-76
2022/11/18 04:23:20;;;;;;;51.60;18.40;;;7.90;99.90;;;;;;4759989;30;20147;-76
2022/11/18 04:25:47;;;;;;;45.17;17.52;;;7.90;99.90;;;;;;4747483;30;20080;-76
2022/11/18 04:28:14;;;;;;;42.72;17.42;;;7.90;99.90;;;;;;4761152;30;20059;-76
2022/11/18 04:30:41;;;;;;;44.05;16.15;;;7.90;99.90;;;;;;4757184;30;20103;-76
2022/11/18 04:33:08;;;;;;;43.92;16.55;;;7.90;99.90;;;;;;4757934;30;20142;-76
2022/11/18 04:35:35;;;;;;;52.75;19.92;;;7.90;99.90;;;;;;4760765;30;20131;-76
2022/11/18 04:38:02;;;;;;;49.00;19.55;;;7.90;99.90;;;;;;4763694;30;23885;-76
2022/11/18 04:40:30;;;;;;;50.95;20.30;;;7.90;99.90;;;;;;4768178;29;20054;-76
2022/11/18 04:42:57;;;;;;;51.80;19.85;;;7.90;99.90;;;;;;4784482;29;20381;-76
2022/11/18 04:45:24;;;;;;;51.42;18.65;;;7.90;99.90;;;;;;4766248;29;20071;-76
2022/11/18 04:47:51;;;;;;;45.30;18.95;;;7.90;99.90;;;;;;4776093;29;20054;-76
2022/11/18 04:50:18;;;;;;;48.45;18.42;;;7.90;99.90;;;;;;4759861;30;20055;-76
2022/11/18 04:52:45;;;;;;;50.83;20.10;;;7.90;99.90;;;;;;4765242;29;20059;-76
2022/11/18 04:55:12;;;;;;;52.50;20.10;;;7.90;99.90;;;;;;4763552;30;20460;-76
2022/11/18 04:57:39;;;;;;;61.65;22.65;;;8.00;99.90;;;;;;4776282;29;20048;-76
2022/11/18 05:00:07;;;;;;;56.53;20.48;;;7.90;99.90;;;;;;4779382;29;20862;-76
2022/11/18 05:02:34;;;;;;;57.10;19.98;;;7.90;99.90;;;;;;4774820;29;20055;-76
2022/11/18 05:05:02;;;;;;;52.67;17.13;;;7.90;99.90;;;;;;4765631;30;20516;-76
2022/11/18 05:07:29;;;;;;;45.17;17.30;;;7.90;99.90;;;;;;4775203;29;20140;-76
2022/11/18 05:09:56;;;;;;;48.58;16.42;;;8.00;99.90;;;;;;4774071;29;20104;-76
2022/11/18 05:15:08;;;;;;;49.50;17.95;;;7.90;99.90;;;;;;4781411;29;20107;-76
2022/11/18 05:17:35;;;;;;;47.85;17.55;;;8.00;99.90;;;;;;4764395;29;20139;-76
2022/11/18 05:20:03;;;;;;;46.70;17.92;;;7.90;99.90;;;;;;4773814;29;20047;-76
2022/11/18 05:22:30;;;;;;;44.60;17.00;;;8.00;99.90;;;;;;4779496;29;20047;-76
2022/11/18 05:24:57;;;;;;;43.58;16.20;;;7.90;99.90;;;;;;4776216;29;20058;-76
2022/11/18 05:27:24;;;;;;;45.15;16.23;;;7.90;99.90;;;;;;4776417;29;20134;-76
2022/11/18 05:29:51;;;;;;;38.78;14.32;;;7.90;99.90;;;;;;4757177;30;20071;-76
2022/11/18 05:32:18;;;;;;;44.55;14.73;;;7.90;99.90;;;;;;4758900;30;20055;-76
2022/11/18 05:34:45;;;;;;;46.03;16.63;;;8.00;99.90;;;;;;4782196;29;20051;-76
2022/11/18 05:37:16;;;;;;;44.25;16.58;;;7.90;99.90;;;;;;4775719;29;20071;-76
2022/11/18 05:39:43;;;;;;;40.08;15.65;;;7.90;99.90;;;;;;4777096;29;20052;-76
2022/11/18 05:44:55;;;;;;;42.78;16.55;;;7.90;99.90;;;;;;4762685;29;20047;-76
2022/11/18 05:47:25;;;;;;;41.30;15.02;;;7.90;99.90;;;;;;4776198;29;20453;-76
2022/11/18 05:49:52;;;;;;;42.40;15.93;;;7.90;99.90;;;;;;4763462;30;20055;-76
2022/11/18 05:52:19;;;;;;;44.60;14.70;;;7.90;99.90;;;;;;4766357;30;20516;-76
2022/11/18 05:54:49;;;;;;;41.17;15.68;;;7.90;99.90;;;;;;4775757;29;20571;-76
2022/11/18 05:57:16;;;;;;;42.58;15.20;;;8.00;99.90;;;;;;4776230;29;20059;-76
2022/11/18 05:59:43;;;;;;;42.35;16.50;;;8.00;99.90;;;;;;4779331;29;20058;-76
2022/11/18 06:02:15;;;;;;;48.25;19.17;;;8.00;99.90;;;;;;4776705;29;20043;-76
2022/11/18 06:04:48;;;;;;;45.78;17.35;;;7.90;99.90;;;;;;4780910;29;20059;-77
2022/11/18 06:07:21;;;;;;;43.33;16.27;;;7.90;99.90;;;;;;4778137;29;20052;-76
2022/11/18 06:09:54;;;;;;;45.60;18.15;;;7.90;99.90;;;;;;4760488;29;20048;-76
2022/11/18 06:12:30;;;;;;;52.10;18.40;;;7.90;99.90;;;;;;4759289;30;20043;-76
2022/11/18 06:15:11;;;;;;;48.03;17.95;;;8.00;99.90;;;;;;4776170;29;20534;-77
2022/11/18 06:17:44;;;;;;;37.30;15.82;;;8.00;99.90;;;;;;4775311;29;20519;-76
2022/11/18 06:20:11;;;;;;;44.72;16.25;;;8.00;99.90;;;;;;4764333;29;20059;-76
2022/11/18 06:22:39;;;;;;;45.40;17.05;;;8.00;99.90;;;;;;4774792;29;20058;-76
2022/11/18 06:25:13;;;;;;;45.90;17.58;;;8.00;99.90;;;;;;4774002;29;20107;-76
2022/11/18 06:27:40;;;;;;;52.15;17.63;;;8.00;99.90;;;;;;4776569;29;20063;-76
2022/11/18 06:30:08;;;;;;;46.20;15.60;;;8.00;99.90;;;;;;4776367;29;20052;-76
2022/11/18 06:32:35;;;;;;;47.60;17.25;;;8.00;99.90;;;;;;4762626;30;20792;-76
2022/11/18 06:35:02;;;;;;;47.28;16.98;;;8.00;99.90;;;;;;4775187;29;20119;-76
2022/11/18 06:37:29;;;;;;;42.15;15.00;;;8.00;99.90;;;;;;4770603;29;20508;-76
2022/11/18 06:39:56;;;;;;;41.35;16.40;;;8.00;99.90;;;;;;4779906;29;20082;-76
2022/11/18 06:45:11;;;;;;;42.10;14.82;;;8.00;99.90;;;;;;4776412;29;20500;-76
2022/11/18 06:47:38;;;;;;;46.13;16.10;;;8.00;99.90;;;;;;4777180;29;20478;-76
2022/11/18 06:50:06;;;;;;;44.67;14.93;;;8.00;99.90;;;;;;4766755;29;20109;-76
2022/11/18 06:52:33;;;;;;;41.38;13.80;;;8.00;99.90;;;;;;4775887;29;20096;-76
2022/11/18 06:55:00;;;;;;;47.83;16.30;;;8.00;99.90;;;;;;4766102;30;20051;-76
2022/11/18 06:57:28;;;;;;;40.95;14.77;;;8.00;99.90;;;;;;4778660;29;20126;-76
2022/11/18 06:59:55;;;;;;;40.83;14.45;;;8.00;99.90;;;;;;4760397;30;20055;-76
2022/11/18 07:02:27;;;;;;;;;;;8.00;99.90;;;;;;4773955;29;20052;-77
2022/11/18 07:04:54;;;;;;;43.05;15.10;;;8.00;99.90;;;;;;4752199;29;19981;-77
2022/11/18 07:07:22;;;;;;;38.45;15.25;;;8.00;99.90;;;;;;4766577;29;21033;-77
2022/11/18 07:09:49;;;;;;;43.70;14.75;;;8.00;99.90;;;;;;4772376;29;20082;-77
2022/11/18 07:12:16;;;;;;;44.28;15.63;;;8.10;99.90;;;;;;4763213;30;20056;-77
2022/11/18 07:14:43;;;;;;;41.47;14.75;;;8.10;99.90;;;;;;4777580;29;20055;-77
2022/11/18 07:17:10;;;;;;;45.03;14.60;;;8.00;99.90;;;;;;4767269;30;20050;-78
2022/11/18 07:19:38;;;;;;;42.97;15.38;;;8.00;99.90;;;;;;4780719;29;20070;-78
2022/11/18 07:22:06;;;;;;;38.25;14.57;;;8.10;99.90;;;;;;4765593;29;20047;-78
2022/11/18 07:24:34;;;;;;;37.88;12.88;;;8.10;99.90;;;;;;4778076;29;20526;-78
2022/11/18 07:27:01;;;;;;;38.72;13.48;;;8.10;99.90;;;;;;4778784;29;20055;-78
2022/11/18 07:29:28;;;;;;;37.13;14.32;;;8.10;99.90;;;;;;4767681;30;20043;-78
2022/11/18 07:31:55;;;;;;;35.05;13.40;;;8.10;99.90;;;;;;4778141;29;20054;-77
2022/11/18 07:34:22;;;;;;;33.92;12.90;;;8.10;99.90;;;;;;4778593;29;20048;-78
2022/11/18 07:36:49;;;;;;;37.42;12.40;;;8.00;99.90;;;;;;4774362;29;20044;-78
2022/11/18 07:39:17;;;;;;;33.50;13.18;;;8.10;99.90;;;;;;4766910;29;20116;-78
2022/11/18 07:41:44;;;;;;;38.60;14.32;;;8.10;99.90;;;;;;4781490;29;20625;-78
2022/11/18 07:44:12;;;;;;;32.80;12.63;;;8.10;99.90;;;;;;4769546;30;20054;-78
2022/11/18 07:46:40;;;;;;;36.08;13.77;;;8.10;99.90;;;;;;4782065;29;20083;-78
2022/11/18 07:49:08;;;;;;;43.83;16.40;;;8.10;99.90;;;;;;4780929;29;20051;-78
2022/11/18 07:51:37;;;;;;;41.50;15.25;;;8.10;99.90;;;;;;4778010;29;20047;-77
2022/11/18 07:54:06;;;;;;;32.80;13.68;;;8.10;99.90;;;;;;4749898;30;20054;-78
2022/11/18 07:56:33;;;;;;;37.83;13.80;;;8.10;99.90;;;;;;4779850;29;20461;-77
2022/11/18 07:59:01;;;;;;;29.83;12.52;;;8.10;99.90;;;;;;4777299;30;20051;-77
2022/11/18 08:01:29;;;;;;;37.38;13.95;;;8.20;99.90;;;;;;4779652;29;20063;-77
2022/11/18 08:04:02;;;;;;;31.35;12.27;;;8.10;99.90;;;;;;4775187;29;20058;-77
2022/11/18 08:06:32;;;;;;;34.13;13.45;;;8.00;99.90;;;;;;4750507;30;20048;-77
2022/11/18 08:09:00;;;;;;;31.23;12.30;;;8.10;99.90;;;;;;4775642;29;20138;-77
2022/11/18 08:11:27;;;;;;;33.22;12.35;;;8.20;99.90;;;;;;4775863;29;20071;-77
2022/11/18 08:13:54;;;;;;;38.00;12.40;;;8.20;99.90;;;;;;4781608;29;20104;-77
2022/11/18 08:16:23;;;;;;;37.33;14.35;;;8.20;99.90;;;;;;4766853;30;20040;-78
2022/11/18 08:18:51;;;;;;;32.40;12.77;;;8.20;99.90;;;;;;4778134;29;20054;-78
2022/11/18 08:21:20;;;;;;;35.47;13.02;;;8.20;99.90;;;;;;4766117;30;20133;-77
2022/11/18 08:23:57;;;;;;;39.40;13.07;;;8.20;99.90;;;;;;4777301;29;20093;-77
2022/11/18 08:26:25;;;;;;;42.28;13.02;;;8.20;99.90;;;;;;4770105;29;20591;-77
2022/11/18 08:28:52;;;;;;;38.00;14.00;;;8.20;99.90;;;;;;4765684;29;20062;-77
2022/11/18 08:31:24;;;;;;;38.53;14.27;;;8.20;99.90;;;;;;4761141;29;20042;-77
2022/11/18 08:33:55;;;;;;;36.55;12.85;;;8.20;99.90;;;;;;4779547;29;20416;-78
2022/11/18 08:36:25;;;;;;;39.70;13.40;;;8.20;99.90;;;;;;4777527;29;20096;-78
2022/11/18 08:38:55;;;;;;;39.25;11.82;;;8.20;99.90;;;;;;4784868;29;20063;-78
2022/11/18 08:41:32;;;;;;;39.40;13.60;;;8.20;99.90;;;;;;4778225;29;20052;-77
2022/11/18 08:43:59;;;;;;;42.67;12.57;;;8.10;99.90;;;;;;4775915;29;20100;-77
2022/11/18 08:46:27;;;;;;;37.33;12.05;;;8.10;99.90;;;;;;4778749;29;20054;-77
2022/11/18 08:48:55;;;;;;;37.42;14.13;;;8.10;99.90;;;;;;4774851;29;20056;-77
2022/11/18 08:51:22;;;;;;;36.45;12.82;;;8.20;99.90;;;;;;4764575;30;20043;-77
2022/11/18 08:53:49;;;;;;;40.22;13.15;;;8.10;99.90;;;;;;4765491;29;20039;-77
2022/11/18 08:56:21;;;;;;;38.72;14.10;;;8.10;99.90;;;;;;4767142;29;20054;-77
2022/11/18 08:58:48;;;;;;;41.47;14.07;;;8.10;99.90;;;;;;4775853;29;20058;-77
2022/11/18 09:01:16;;;;;;;35.60;13.65;;;8.10;99.90;;;;;;4784040;30;20046;-77
2022/11/18 09:03:43;;;;;;;39.53;14.40;;;8.20;99.90;;;;;;4779894;29;20140;-77
2022/11/18 09:06:20;;;;;;;37.38;13.30;;;8.20;99.90;;;;;;4775339;29;20104;-77
2022/11/18 09:08:47;;;;;;;34.15;12.15;;;8.20;99.90;;;;;;4777075;29;20056;-77
2022/11/18 09:11:20;;;;;;;32.08;11.32;;;8.20;99.90;;;;;;4779313;29;20047;-77
2022/11/18 09:13:50;;;;;;;32.45;11.85;;;8.20;99.90;;;;;;4776392;29;20072;-77
2022/11/18 09:16:37;;;;;;;33.40;11.80;;;8.60;99.90;;;;;;4772890;29;20043;-77
2022/11/18 09:19:04;;;;;;;30.48;9.80;;;8.20;99.90;;;;;;4766060;30;20048;-77
2022/11/18 09:21:51;;;;;;;34.20;10.27;;;8.20;99.90;;;;;;4779576;29;20043;-77
2022/11/18 09:24:18;;;;;;;30.23;11.20;;;8.20;99.90;;;;;;4773320;30;20047;-77
2022/11/18 09:26:47;;;;;;;29.85;11.38;;;8.20;99.90;;;;;;4766180;30;20670;-77
2022/11/18 09:29:13;;;;;;;29.13;10.13;;;8.20;99.90;;;;;;4776946;29;20051;-77
2022/11/18 09:31:40;;;;;;;31.95;11.35;;;8.20;99.90;;;;;;4771635;30;20047;-78
2022/11/18 09:34:09;;;;;;;33.13;11.18;;;8.10;99.90;;;;;;4780243;29;20119;-78
2022/11/18 09:36:36;;;;;;;30.75;11.27;;;8.20;99.90;;;;;;4767727;29;20073;-77
2022/11/18 09:39:04;;;;;;;30.00;10.93;;;8.20;99.90;;;;;;4773513;30;20059;-77
2022/11/18 09:41:47;;;;;;;34.20;13.65;;;8.20;99.90;;;;;;4776317;29;20462;-77
2022/11/18 09:44:45;;;;;;;26.90;11.57;;;8.20;99.90;;;;;;4764653;30;20153;-77
2022/11/18 09:47:35;;;;;;;29.63;10.80;;;8.30;99.90;;;;;;4773212;29;20055;-77
2022/11/18 09:50:11;;;;;;;27.60;10.75;;;8.30;99.90;;;;;;4752745;30;20056;-77
2022/11/18 09:53:16;;;;;;;29.98;12.35;;;8.30;99.90;;;;;;4778305;29;20146;-77
2022/11/18 09:55:44;;;;;;;27.30;11.40;;;8.30;99.90;;;;;;4784667;29;20447;-77
2022/11/18 09:58:25;;;;;;;23.05;9.43;;;8.30;99.90;;;;;;4767595;30;20401;-77
2022/11/18 10:00:53;;;;;;;25.08;10.20;;;8.30;99.90;;;;;;4776361;29;20056;-77
2022/11/18 10:03:27;;;;;;;26.13;10.05;;;8.30;99.90;;;;;;4764882;30;20043;-77
2022/11/18 10:06:12;;;;;;;21.58;9.98;;;8.30;99.90;;;;;;4779288;29;20059;-77
2022/11/18 10:09:19;;;;;;;25.05;9.32;;;8.30;99.90;;;;;;4778967;29;20058;-77
2022/11/18 10:12:07;;;;;;;21.23;10.13;;;8.20;99.90;;;;;;4785364;29;20071;-77
2022/11/18 10:15:09;;;;;;;24.42;10.18;;;8.20;99.90;;;;;;4778935;29;20392;-77
2022/11/18 10:17:57;;;;;;;25.67;10.85;;;8.20;99.90;;;;;;4765726;30;20095;-78
2022/11/18 10:20:27;;;;;;;24.52;10.23;;;8.30;99.90;;;;;;4761795;29;20051;-77
2022/11/18 10:23:23;;;;;;;24.20;9.77;;;8.20;99.90;;;;;;4779536;29;20496;-77
2022/11/18 10:25:53;;;;;;;24.27;9.30;;;8.20;99.90;;;;;;4777162;29;20056;-78
2022/11/18 10:28:28;;;;;;;28.45;10.73;;;8.30;99.90;;;;;;4765112;30;20051;-77
2022/11/18 10:31:06;;;;;;;21.23;9.63;;;8.20;99.90;;;;;;4773220;29;20052;-77
2022/11/18 10:33:33;;;;;;;26.08;11.05;;;8.30;99.90;;;;;;4775360;29;20496;-77
2022/11/18 10:36:17;;;;;;;25.98;11.10;;;8.20;99.90;;;;;;4777912;29;20047;-77
2022/11/18 10:38:45;;;;;;;27.88;12.90;;;8.20;99.90;;;;;;4776800;29;20053;-77
2022/11/18 10:41:18;;;;;;;27.50;11.32;;;8.20;99.90;;;;;;4776721;29;20059;-77
2022/11/18 10:43:47;;;;;;;64.97;26.92;;;8.20;99.90;;;;;;4783533;29;20802;-77
2022/11/18 10:46:31;;;;;;;53.20;24.42;;;8.20;99.90;;;;;;4773342;29;20059;-77
2022/11/18 10:49:07;;;;;;;43.60;18.35;;;8.10;99.90;;;;;;4781375;29;20070;-77
2022/11/18 10:51:36;;;;;;;60.38;31.20;;;8.20;99.90;;;;;;4760085;29;20053;-77
2022/11/18 10:54:22;;;;;;;53.45;29.63;;;8.10;99.90;;;;;;4777904;29;20185;-77
2022/11/18 10:57:14;;;;;;;29.60;14.00;;;8.10;99.90;;;;;;4764531;29;20047;-77
2022/11/18 10:59:52;;;;;;;24.13;13.18;;;8.10;99.90;;;;;;4777851;29;20047;-77
2022/11/18 11:02:31;;;;;;;20.75;10.25;;;8.00;99.90;;;;;;4772863;29;20052;-77
2022/11/18 11:05:20;;;;;;;21.98;10.25;;;8.00;99.90;;;;;;4773245;29;20115;-77
2022/11/18 11:08:16;;;;;;;19.42;9.10;;;8.00;99.90;;;;;;4766698;30;20571;-77
2022/11/18 11:11:02;;;;;;;19.60;7.97;;;8.00;99.90;;;;;;4770379;29;20500;-77
2022/11/18 11:13:31;;;;;;;16.58;7.93;;;8.00;99.90;;;;;;4772349;29;20058;-77
2022/11/18 11:16:02;;;;;;;18.08;8.48;;;7.90;99.90;;;;;;4777739;29;20047;-77
2022/11/18 11:18:41;;;;;;;17.25;8.85;;;7.90;99.90;;;;;;4776331;29;20047;-77
2022/11/18 11:21:12;;;;;;;19.98;10.07;;;7.90;99.90;;;;;;4777374;29;20179;-77
2022/11/18 11:23:40;;;;;;;16.40;7.30;;;7.90;99.90;;;;;;4784275;29;20062;-77
2022/11/18 11:26:35;;;;;;;16.40;8.52;;;7.90;99.90;;;;;;4779776;29;20576;-77
2022/11/18 11:29:25;;;;;;;14.70;7.53;;;7.90;99.90;;;;;;4770071;29;20100;-77
2022/11/18 11:32:26;;;;;;;15.93;8.15;;;7.90;99.90;;;;;;4779356;29;20104;-77
2022/11/18 11:35:17;;;;;;;14.57;6.72;;;7.90;99.90;;;;;;4778300;30;20524;-77
2022/11/18 11:37:56;;;;;;;17.25;7.30;;;7.90;99.90;;;;;;4771819;29;20505;-77
2022/11/18 11:40:28;;;;;;;63.05;22.38;;;7.90;99.90;;;;;;4751827;30;20059;-77
2022/11/18 11:43:27;;;;;;;27.83;10.23;;;7.90;99.90;;;;;;4758976;30;20142;-77
2022/11/18 11:46:09;;;;;;;24.20;11.60;;;7.80;99.90;;;;;;4728943;29;20150;-77
2022/11/18 11:49:04;;;;;;;21.13;9.25;;;7.80;99.90;;;;;;4757223;30;20626;-77
2022/11/18 11:51:41;;;;;;;17.33;8.43;;;7.80;99.90;;;;;;4745854;30;20208;-77
2022/11/18 11:54:23;;;;;;;18.20;8.70;;;7.80;99.90;;;;;;4759003;30;20075;-77
2022/11/18 11:56:56;;;;;;;14.60;7.13;;;7.80;99.90;;;;;;4767159;30;20055;-77
2022/11/18 11:59:32;;;;;;;19.00;8.00;;;7.80;99.90;;;;;;4757116;30;20048;-77
2022/11/18 12:02:02;;;;;;;16.17;7.07;;;7.80;99.90;;;;;;4752801;30;20146;-77
2022/11/18 12:04:40;;;;;;;16.42;7.80;;;7.80;99.90;;;;;;4759047;30;20098;-77
2022/11/18 12:07:24;;;;;;;16.75;7.40;;;7.80;99.90;;;;;;4761772;30;20424;-77
2022/11/18 12:10:16;;;;;;;14.43;6.72;;;7.70;99.90;;;;;;4769414;30;20329;-77
2022/11/18 12:12:49;;;;;;;14.95;6.93;;;7.70;99.90;;;;;;4750554;30;20051;-77
2022/11/18 12:15:51;;;;;;;;;;;7.70;99.90;;;;;;4759048;30;20048;-77
2022/11/18 12:18:56;;;;;;;18.10;7.97;;;7.80;99.90;;;;;;4696890;30;19935;-77
2022/11/18 12:21:44;;;;;;;19.40;8.50;;;7.80;99.90;;;;;;4751672;30;20086;-77
2022/11/18 12:24:26;;;;;;;19.20;8.43;;;7.80;99.90;;;;;;4753644;30;20059;-77
2022/11/18 12:26:53;;;;;;;21.80;8.45;;;7.70;99.90;;;;;;4763627;30;20170;-77
2022/11/18 12:29:20;;;;;;;22.73;10.38;;;7.70;99.90;;;;;;4762848;30;20515;-77
2022/11/18 12:31:58;;;;;;;16.13;7.40;;;7.70;99.90;;;;;;4762209;30;20156;-78
2022/11/18 12:34:25;;;;;;;21.13;9.77;;;7.80;99.90;;;;;;4762642;30;20550;-78
2022/11/18 12:36:53;;;;;;;18.08;8.07;;;7.80;99.90;;;;;;4772330;29;20040;-77
2022/11/18 12:39:29;;;;;;;18.20;7.85;;;7.70;99.90;;;;;;4772871;30;20389;-78
2022/11/18 12:44:45;;;;;;;14.82;7.68;;;7.70;99.90;;;;;;4784492;29;20060;-77
2022/11/18 12:47:14;;;;;;;15.85;6.80;;;7.80;99.90;;;;;;4778928;29;20047;-77
2022/11/18 12:49:44;;;;;;;14.38;6.65;;;7.70;99.90;;;;;;4765482;29;20105;-78
2022/11/18 12:52:29;;;;;;;12.65;6.47;;;7.80;99.90;;;;;;4774889;29;20184;-77
2022/11/18 12:55:03;;;;;;;13.57;6.35;;;7.80;99.90;;;;;;4781625;29;20054;-77
2022/11/18 12:57:33;;;;;;;12.88;6.70;;;7.80;99.90;;;;;;4782202;29;20500;-77
2022/11/18 13:00:50;;;;;;;12.38;6.57;;;7.80;99.90;;;;;;4781160;29;20043;-77
2022/11/18 13:03:23;;;;;;;15.52;6.18;;;7.80;99.90;;;;;;4748374;30;20070;-77
2022/11/18 13:05:58;;;;;;;18.15;7.60;;;7.80;99.90;;;;;;4775556;29;20055;-77
2022/11/18 13:08:27;;;;;;;12.77;6.55;;;7.80;99.90;;;;;;4782211;29;20047;-77
2022/11/18 13:17:50;;;;;;;16.30;8.37;;;7.80;99.90;;;;;;4776618;29;20070;-77
2022/11/18 13:19:24;;;;;;;14.60;7.07;;;7.80;99.90;;;;;;4775638;29;20043;-77
2022/11/18 13:24:51;;;;;;;15.50;6.55;;;7.80;99.90;;;;;;4780336;29;20504;-78
2022/11/18 13:27:46;;;;;;;12.55;5.63;;;7.70;99.90;;;;;;4782345;29;20052;-78
2022/11/18 13:30:15;;;;;;;11.32;5.47;;;7.70;99.90;;;;;;4780620;29;20467;-78